Time;durP1;ratioP1;P1;durP2;ratioP2;P2;SDS_P1;SDS_P2;PMS_P1;PMS_P2;Temp;Humidity;BMP_temperature;BMP_pressure;BME280_temperature;BME280_humidity;BME280_pressure;Samples;Min_cycle;Max_cycle;Signal;HPM_P1;HPM_P2
2023/04/13 00:00:42;;;;;;;20.63;7.80;;;;;;;-145.18;100.00;60484.78;5008821;28;20101;-73
2023/04/13 00:03:10;;;;;;;21.13;7.27;;;;;;;-145.18;100.00;60484.78;4999279;28;20515;-73
2023/04/13 00:05:37;;;;;;;15.80;7.17;;;;;;;-145.18;100.00;60484.78;5011556;28;20098;-73
2023/04/13 00:08:03;;;;;;;20.33;7.87;;;;;;;-145.18;100.00;60484.78;5004942;28;20037;-73
2023/04/13 00:10:30;;;;;;;15.77;7.00;;;;;;;-145.18;100.00;60484.78;5008552;28;20505;-73
2023/04/13 00:12:57;;;;;;;17.23;7.53;;;;;;;-145.18;100.00;60484.78;5008319;28;20037;-73
2023/04/13 00:15:24;;;;;;;16.50;7.10;;;;;;;-145.18;100.00;60484.78;5004006;28;20386;-73
2023/04/13 00:17:50;;;;;;;20.27;8.10;;;;;;;-145.18;100.00;60484.78;5007194;28;20025;-73
2023/04/13 00:20:16;;;;;;;18.40;7.60;;;;;;;-145.18;100.00;60484.78;4999998;28;20474;-73
2023/04/13 00:22:43;;;;;;;20.30;8.27;;;;;;;-145.18;100.00;60484.78;5003233;28;20034;-73
2023/04/13 00:25:10;;;;;;;21.00;8.73;;;;;;;-145.18;100.00;60484.78;4999609;28;20030;-73
2023/04/13 00:27:38;;;;;;;23.47;8.43;;;;;;;-145.18;100.00;60484.78;5003720;28;20064;-73
2023/04/13 00:30:12;;;;;;;19.60;8.57;;;;;;;-145.18;100.00;60484.78;5003974;28;20026;-73
2023/04/13 00:32:41;;;;;;;19.43;9.20;;;;;;;-145.18;100.00;60484.78;5002153;28;20057;-73
2023/04/13 00:35:08;;;;;;;20.50;9.17;;;;;;;-145.18;100.00;60484.78;5005141;28;20037;-72
2023/04/13 00:37:33;;;;;;;21.63;8.00;;;;;;;-145.18;100.00;60484.78;5004603;28;20025;-73
2023/04/13 00:39:59;;;;;;;21.07;8.70;;;;;;;-145.18;100.00;60484.78;5000927;28;20030;-73
2023/04/13 00:42:25;;;;;;;18.17;7.87;;;;;;;-145.18;100.00;60484.78;5004869;28;20030;-73
2023/04/13 00:44:54;;;;;;;15.87;7.27;;;;;;;-145.18;100.00;60484.78;5009759;28;20393;-74
2023/04/13 00:47:31;;;;;;;19.90;7.73;;;;;;;-145.18;100.00;60484.78;5012263;28;20052;-73
2023/04/13 00:50:00;;;;;;;15.67;6.77;;;;;;;-145.18;100.00;60484.78;5005761;28;20030;-73
2023/04/13 00:52:26;;;;;;;16.07;7.27;;;;;;;-145.18;100.00;60484.78;5006938;28;20033;-73
2023/04/13 00:54:55;;;;;;;18.57;8.03;;;;;;;-145.18;100.00;60484.78;5003194;28;20034;-74
2023/04/13 00:57:21;;;;;;;20.93;7.67;;;;;;;-145.18;100.00;60484.78;5006861;28;20044;-73
2023/04/13 00:59:48;;;;;;;16.47;7.10;;;;;;;-145.18;100.00;60484.78;5003331;28;20037;-74
2023/04/13 01:02:15;;;;;;;18.10;6.63;;;;;;;-145.18;100.00;60484.78;5026579;22;20048;-68
2023/04/13 01:04:41;;;;;;;16.30;7.07;;;;;;;-145.18;100.00;60484.78;5047767;28;20033;-67
2023/04/13 01:07:18;;;;;;;14.87;7.17;;;;;;;-145.18;100.00;60484.78;5046496;28;20091;-69
2023/04/13 01:10:09;;;;;;;14.87;7.27;;;;;;;-145.18;100.00;60484.78;5030708;28;20507;-69
2023/04/13 01:13:06;;;;;;;13.70;6.57;;;;;;;-145.18;100.00;60484.78;5045248;28;20393;-69
2023/04/13 01:15:36;;;;;;;18.37;6.70;;;;;;;-145.18;100.00;60484.78;5044519;28;20041;-70
2023/04/13 01:18:07;;;;;;;11.00;4.73;;;;;;;-145.18;100.00;60484.78;5045383;28;20078;-69
2023/04/13 01:20:35;;;;;;;16.77;6.93;;;;;;;-145.18;100.00;60484.78;5045057;28;20396;-69
2023/04/13 01:23:06;;;;;;;18.77;7.20;;;;;;;-145.18;100.00;60484.78;5049872;28;20408;-69
2023/04/13 01:25:50;;;;;;;16.53;7.43;;;;;;;-145.18;100.00;60484.78;5052384;28;20115;-69
2023/04/13 01:28:18;;;;;;;17.13;7.80;;;;;;;-145.18;100.00;60484.78;5041049;28;20033;-69
2023/04/13 01:30:45;;;;;;;16.17;5.80;;;;;;;-145.18;100.00;60484.78;5047070;28;20082;-69
2023/04/13 01:33:12;;;;;;;12.97;5.73;;;;;;;-145.18;100.00;60484.78;5044900;28;20112;-69
2023/04/13 01:35:38;;;;;;;20.80;7.80;;;;;;;-145.18;100.00;60484.78;5045414;28;20039;-69
2023/04/13 01:38:05;;;;;;;19.17;7.70;;;;;;;-145.18;100.00;60484.78;5051894;28;20025;-69
2023/04/13 01:40:33;;;;;;;19.87;7.23;;;;;;;-145.18;100.00;60484.78;5045348;28;20098;-70
2023/04/13 01:42:59;;;;;;;17.73;7.10;;;;;;;-145.18;100.00;60484.78;5044853;28;20025;-70
2023/04/13 01:45:28;;;;;;;13.50;6.30;;;;;;;-145.18;100.00;60484.78;5047938;28;20083;-69
2023/04/13 01:48:18;;;;;;;17.90;8.33;;;;;;;-145.18;100.00;60484.78;5050563;28;20091;-69
2023/04/13 01:50:59;;;;;;;17.43;8.23;;;;;;;-145.18;100.00;60484.78;5041111;28;20029;-70
2023/04/13 01:53:34;;;;;;;22.63;9.93;;;;;;;-145.18;100.00;60484.78;5037563;28;20033;-69
2023/04/13 01:56:03;;;;;;;21.50;9.57;;;;;;;-145.18;100.00;60484.78;5027799;28;20036;-69
2023/04/13 01:58:32;;;;;;;18.87;9.20;;;;;;;-145.18;100.00;60484.78;5046676;28;20041;-70
2023/04/13 02:00:58;;;;;;;20.37;8.80;;;;;;;-145.18;100.00;60484.78;5043935;28;20032;-69
2023/04/13 02:03:24;;;;;;;19.17;8.60;;;;;;;-145.18;100.00;60484.78;5050871;28;20053;-69
2023/04/13 02:05:49;;;;;;;18.83;9.30;;;;;;;-145.18;100.00;60484.78;5048132;28;20028;-69
2023/04/13 02:08:17;;;;;;;19.80;9.57;;;;;;;-145.18;100.00;60484.78;5043797;28;20128;-69
2023/04/13 02:10:43;;;;;;;23.13;9.33;;;;;;;-145.18;100.00;60484.78;5046182;28;20078;-69
2023/04/13 02:13:09;;;;;;;19.30;8.67;;;;;;;-145.18;100.00;60484.78;5045492;28;20358;-69
2023/04/13 02:15:37;;;;;;;18.17;7.13;;;;;;;-145.18;100.00;60484.78;5045612;28;20031;-69
2023/04/13 02:18:04;;;;;;;19.40;9.43;;;;;;;-145.18;100.00;60484.78;5047275;28;20064;-69
2023/04/13 02:20:33;;;;;;;18.20;8.67;;;;;;;-145.18;100.00;60484.78;5046450;28;20028;-71
2023/04/13 02:22:59;;;;;;;18.17;8.87;;;;;;;-145.18;100.00;60484.78;5044439;28;20960;-73
2023/04/13 02:25:26;;;;;;;15.10;7.87;;;;;;;-145.18;100.00;60484.78;5046921;28;20020;-72
2023/04/13 02:27:52;;;;;;;17.37;8.57;;;;;;;-145.18;100.00;60484.78;5047235;28;20374;-73
2023/04/13 02:30:18;;;;;;;18.73;8.93;;;;;;;-145.18;100.00;60484.78;5048238;28;20028;-72
2023/04/13 02:32:48;;;;;;;20.67;8.87;;;;;;;-145.18;100.00;60484.78;5039754;28;20512;-72
2023/04/13 02:35:14;;;;;;;17.13;7.87;;;;;;;-145.18;100.00;60484.78;5049399;28;20021;-73
2023/04/13 02:37:40;;;;;;;16.67;7.90;;;;;;;-145.18;100.00;60484.78;5030282;28;20021;-72
2023/04/13 02:40:08;;;;;;;17.67;8.00;;;;;;;-145.18;100.00;60484.78;5049534;28;20037;-72
2023/04/13 02:42:34;;;;;;;17.47;8.27;;;;;;;-145.18;100.00;60484.78;5025313;28;20037;-72
2023/04/13 02:45:00;;;;;;;18.30;8.13;;;;;;;-145.18;100.00;60484.78;5047917;28;20078;-72
2023/04/13 02:47:26;;;;;;;14.67;7.00;;;;;;;-145.18;100.00;60484.78;5019693;28;20579;-72
2023/04/13 02:49:51;;;;;;;15.20;6.93;;;;;;;-145.18;100.00;60484.78;5049527;28;20047;-72
2023/04/13 02:52:17;;;;;;;14.27;6.90;;;;;;;-145.18;100.00;60484.78;5039223;28;20384;-72
2023/04/13 02:54:43;;;;;;;12.17;6.63;;;;;;;-145.18;100.00;60484.78;5040147;28;20029;-72
2023/04/13 02:57:12;;;;;;;14.43;6.50;;;;;;;-145.18;100.00;60484.78;5042799;28;20017;-70
2023/04/13 02:59:40;;;;;;;12.97;6.13;;;;;;;-145.18;100.00;60484.78;5044953;28;20435;-70
2023/04/13 03:02:06;;;;;;;10.50;5.23;;;;;;;-145.18;100.00;60484.78;5045420;28;20044;-70
2023/04/13 03:04:32;;;;;;;9.50;4.63;;;;;;;-145.18;100.00;60484.78;5044766;28;20021;-70
2023/04/13 03:06:57;;;;;;;8.43;4.03;;;;;;;-145.18;100.00;60484.78;5045357;28;20037;-70
2023/04/13 03:09:24;;;;;;;8.63;3.07;;;;;;;-145.18;100.00;60484.78;5048126;28;20029;-70
2023/04/13 03:11:50;;;;;;;10.20;3.70;;;;;;;-145.18;100.00;60484.78;5048487;28;20024;-70
2023/04/13 03:14:28;;;;;;;5.90;2.90;;;;;;;-145.18;100.00;60484.78;5032641;28;20029;-70
2023/04/13 03:16:56;;;;;;;5.13;2.80;;;;;;;-145.18;100.00;60484.78;5050322;28;20024;-70
2023/04/13 03:19:22;;;;;;;6.17;2.53;;;;;;;-145.18;100.00;60484.78;5056008;28;20029;-70
2023/04/13 03:21:48;;;;;;;5.63;2.30;;;;;;;-145.18;100.00;60484.78;5051354;28;20500;-70
2023/04/13 03:24:14;;;;;;;6.83;2.60;;;;;;;-145.18;100.00;60484.78;5044398;28;20032;-72
2023/04/13 03:26:40;;;;;;;4.13;1.93;;;;;;;-145.18;100.00;60484.78;5047886;28;20441;-72
2023/04/13 03:29:05;;;;;;;4.80;1.83;;;;;;;-145.18;100.00;60484.78;5048834;28;20029;-71
2023/04/13 03:31:31;;;;;;;5.57;2.00;;;;;;;-145.18;100.00;60484.78;5030602;28;20099;-71
2023/04/13 03:33:57;;;;;;;5.40;1.80;;;;;;;-145.18;100.00;60484.78;5052617;28;20032;-72
2023/04/13 03:36:23;;;;;;;4.60;1.90;;;;;;;-145.18;100.00;60484.78;5048349;28;20036;-72
2023/04/13 03:38:48;;;;;;;5.30;2.00;;;;;;;-145.18;100.00;60484.78;5053852;28;20049;-72
2023/04/13 03:41:14;;;;;;;6.80;2.13;;;;;;;-145.18;100.00;60484.78;5047258;28;20548;-72
2023/04/13 03:43:40;;;;;;;4.20;2.00;;;;;;;-145.18;100.00;60484.78;5041026;28;20064;-71
2023/04/13 03:46:06;;;;;;;4.90;1.50;;;;;;;-145.18;100.00;60484.78;5048756;28;20051;-72
2023/04/13 03:48:32;;;;;;;3.90;1.87;;;;;;;-145.18;100.00;60484.78;5047554;28;20507;-72
2023/04/13 03:50:58;;;;;;;4.37;1.83;;;;;;;-145.18;100.00;60484.78;5053186;28;20025;-71
2023/04/13 03:53:24;;;;;;;4.67;1.60;;;;;;;-145.18;100.00;60484.78;5055777;28;20381;-72
2023/04/13 03:55:51;;;;;;;5.33;1.90;;;;;;;-145.18;100.00;60484.78;5047037;28;20017;-72
2023/04/13 03:58:16;;;;;;;7.00;1.93;;;;;;;-145.18;100.00;60484.78;5055487;28;20043;-72
2023/04/13 04:00:42;;;;;;;3.17;1.40;;;;;;;-145.18;100.00;60484.78;5055659;28;20020;-72
2023/04/13 04:03:08;;;;;;;3.07;1.37;;;;;;;-145.18;100.00;60484.78;5053105;28;20052;-72
2023/04/13 04:05:33;;;;;;;5.83;1.77;;;;;;;-145.18;100.00;60484.78;5049387;28;20036;-70
2023/04/13 04:07:59;;;;;;;4.53;1.50;;;;;;;-145.18;100.00;60484.78;5049650;28;20033;-70
2023/04/13 04:10:26;;;;;;;4.97;1.60;;;;;;;-145.18;100.00;60484.78;5047758;28;20025;-70
2023/04/13 04:12:51;;;;;;;4.80;1.50;;;;;;;-145.18;100.00;60484.78;5047871;28;20037;-69
2023/04/13 04:15:17;;;;;;;5.13;1.93;;;;;;;-145.18;100.00;60484.78;5053262;28;20035;-70
2023/04/13 04:17:42;;;;;;;4.47;1.67;;;;;;;-145.18;100.00;60484.78;5048022;28;20017;-70
2023/04/13 04:20:09;;;;;;;5.23;1.90;;;;;;;-145.18;100.00;60484.78;5046792;28;20025;-69
2023/04/13 04:22:35;;;;;;;6.97;1.50;;;;;;;-145.18;100.00;60484.78;5051084;28;20020;-69
2023/04/13 04:25:01;;;;;;;5.50;1.70;;;;;;;-145.18;100.00;60484.78;5048990;28;20025;-70
2023/04/13 04:27:26;;;;;;;8.00;1.90;;;;;;;-145.18;100.00;60484.78;5039395;28;20048;-69
2023/04/13 04:29:53;;;;;;;4.03;1.50;;;;;;;-145.18;100.00;60484.78;5042769;28;20025;-69
2023/04/13 04:32:22;;;;;;;7.40;1.83;;;;;;;-145.18;100.00;60484.78;5049542;28;20098;-69
2023/04/13 04:34:51;;;;;;;4.83;1.90;;;;;;;-145.18;100.00;60484.78;5053458;28;20114;-69
2023/04/13 04:37:20;;;;;;;4.93;1.50;;;;;;;-145.18;100.00;60484.78;5054114;28;20024;-70
2023/04/13 04:39:46;;;;;;;4.73;1.73;;;;;;;-145.18;100.00;60484.78;5054378;28;20473;-69
2023/04/13 04:42:13;;;;;;;5.03;1.70;;;;;;;-145.18;100.00;60484.78;5051550;28;20040;-70
2023/04/13 04:44:39;;;;;;;5.17;1.60;;;;;;;-145.18;100.00;60484.78;5047933;28;20032;-70
2023/04/13 04:47:04;;;;;;;7.33;2.00;;;;;;;-145.18;100.00;60484.78;5032652;28;20029;-70
2023/04/13 04:49:30;;;;;;;6.40;2.10;;;;;;;-145.18;100.00;60484.78;5034745;28;20027;-70
2023/04/13 04:51:56;;;;;;;6.57;2.00;;;;;;;-145.18;100.00;60484.78;5052127;28;20476;-73
2023/04/13 04:54:24;;;;;;;5.47;2.03;;;;;;;-145.18;100.00;60484.78;5034542;28;20025;-73
2023/04/13 04:56:50;;;;;;;5.40;2.03;;;;;;;-145.18;100.00;60484.78;5052041;28;20021;-72
2023/04/13 04:59:19;;;;;;;5.67;2.23;;;;;;;-145.18;100.00;60484.78;5025151;28;20033;-72
2023/04/13 05:01:44;;;;;;;5.67;2.07;;;;;;;-145.18;100.00;60484.78;5052307;28;20029;-72
2023/04/13 05:04:10;;;;;;;5.70;2.13;;;;;;;-145.18;100.00;60484.78;5051190;28;20107;-72
2023/04/13 05:06:39;;;;;;;5.10;1.77;;;;;;;-145.18;100.00;60484.78;5053495;28;20480;-72
2023/04/13 05:09:05;;;;;;;7.20;2.17;;;;;;;-145.18;100.00;60484.78;5054439;28;20086;-72
2023/04/13 05:11:31;;;;;;;4.20;1.50;;;;;;;-145.18;100.00;60484.78;5053377;28;20473;-72
2023/04/13 05:13:57;;;;;;;6.03;2.30;;;;;;;-145.18;100.00;60484.78;5054074;28;20033;-72
2023/04/13 05:16:23;;;;;;;5.17;2.47;;;;;;;-145.18;100.00;60484.78;5052882;28;20052;-72
2023/04/13 05:18:49;;;;;;;4.97;2.20;;;;;;;-145.18;100.00;60484.78;5053820;28;20017;-72
2023/04/13 05:21:15;;;;;;;8.13;2.30;;;;;;;-145.18;100.00;60484.78;5052065;28;20422;-72
2023/04/13 05:23:41;;;;;;;5.37;2.07;;;;;;;-145.18;100.00;60484.78;5053774;28;20057;-72
2023/04/13 05:26:11;;;;;;;7.23;2.40;;;;;;;-145.18;100.00;60484.78;5052941;28;20036;-72
2023/04/13 05:28:37;;;;;;;7.73;2.70;;;;;;;-145.18;100.00;60484.78;5053558;28;20024;-72
2023/04/13 05:31:04;;;;;;;6.03;2.53;;;;;;;-145.18;100.00;60484.78;5053325;28;20045;-72
2023/04/13 05:33:29;;;;;;;8.30;2.87;;;;;;;-145.18;100.00;60484.78;5053613;28;20043;-72
2023/04/13 05:35:56;;;;;;;5.20;2.30;;;;;;;-145.18;100.00;60484.78;5053961;28;20025;-72
2023/04/13 05:38:21;;;;;;;8.93;2.77;;;;;;;-145.18;100.00;60484.78;5053291;28;20078;-72
2023/04/13 05:40:48;;;;;;;9.40;3.43;;;;;;;-145.18;100.00;60484.78;5053443;28;20431;-72
2023/04/13 05:43:14;;;;;;;7.53;2.70;;;;;;;-145.18;100.00;60484.78;5052748;28;20078;-72
2023/04/13 05:45:39;;;;;;;7.13;2.83;;;;;;;-145.18;100.00;60484.78;5051971;28;20481;-72
2023/04/13 05:48:05;;;;;;;8.23;3.10;;;;;;;-145.18;100.00;60484.78;5053593;28;20032;-72
2023/04/13 05:50:31;;;;;;;9.33;3.17;;;;;;;-145.18;100.00;60484.78;5052514;28;20036;-73
2023/04/13 05:52:57;;;;;;;9.43;3.47;;;;;;;-145.18;100.00;60484.78;5051564;28;20032;-73
2023/04/13 05:55:23;;;;;;;10.57;3.90;;;;;;;-145.18;100.00;60484.78;5021894;28;20036;-72
2023/04/13 05:57:49;;;;;;;10.43;3.87;;;;;;;-145.18;100.00;60484.78;5053588;28;20435;-72
2023/04/13 06:00:17;;;;;;;8.43;3.67;;;;;;;-145.18;100.00;60484.78;5053538;28;20468;-73
2023/04/13 06:02:49;;;;;;;9.87;4.10;;;;;;;-145.18;100.00;60484.78;5051446;28;20041;-72
2023/04/13 06:05:15;;;;;;;;;;;;;;;-145.18;100.00;60484.78;5053260;28;20737;-72
2023/04/13 06:07:45;;;;;;;12.47;4.70;;;;;;;-145.18;100.00;60484.78;5052280;28;19916;-73
2023/04/13 06:10:11;;;;;;;7.83;4.70;;;;;;;-145.18;100.00;60484.78;5052452;28;20374;-72
2023/04/13 06:12:37;;;;;;;7.40;4.47;;;;;;;-145.18;100.00;60484.78;5053103;28;20028;-72
2023/04/13 06:15:03;;;;;;;10.13;5.17;;;;;;;-145.18;100.00;60484.78;5051122;28;20511;-72
2023/04/13 06:17:29;;;;;;;9.43;5.00;;;;;;;-145.18;100.00;60484.78;5052877;28;20024;-72
2023/04/13 06:19:55;;;;;;;10.50;5.37;;;;;;;-145.18;100.00;60484.78;5043070;28;20400;-71
2023/04/13 06:22:21;;;;;;;7.97;4.63;;;;;;;-145.18;100.00;60484.78;5043056;28;20044;-71
2023/04/13 06:24:47;;;;;;;11.17;4.63;;;;;;;-145.18;100.00;60484.78;5037517;28;20032;-72
2023/04/13 06:27:12;;;;;;;9.50;4.47;;;;;;;-145.18;100.00;60484.78;5052390;28;20112;-72
2023/04/13 06:29:39;;;;;;;9.70;5.00;;;;;;;-145.18;100.00;60484.78;5052026;28;20402;-72
2023/04/13 06:32:06;;;;;;;7.13;4.00;;;;;;;-145.18;100.00;60484.78;5052164;28;20037;-72
2023/04/13 06:34:31;;;;;;;7.67;4.23;;;;;;;-145.18;100.00;60484.78;5050870;28;20078;-72
2023/04/13 06:36:58;;;;;;;7.50;3.50;;;;;;;-145.18;100.00;60484.78;5051976;28;20420;-71
2023/04/13 06:39:23;;;;;;;6.37;3.63;;;;;;;-145.18;100.00;60484.78;5052190;28;20037;-73
2023/04/13 06:41:49;;;;;;;7.43;3.90;;;;;;;-145.18;100.00;60484.78;5051691;28;20032;-71
2023/04/13 06:44:15;;;;;;;6.20;3.57;;;;;;;-145.18;100.00;60484.78;5053618;28;20033;-72
2023/04/13 06:46:40;;;;;;;7.83;2.80;;;;;;;-145.18;100.00;60484.78;5056597;28;20108;-72
2023/04/13 06:49:06;;;;;;;5.27;2.57;;;;;;;-145.18;100.00;60484.78;5055945;28;20445;-72
2023/04/13 06:51:32;;;;;;;5.93;2.30;;;;;;;-145.18;100.00;60484.78;5056076;28;20028;-72
2023/04/13 06:53:58;;;;;;;4.93;2.00;;;;;;;-145.18;100.00;60484.78;5044881;28;20048;-73
2023/04/13 06:56:24;;;;;;;4.03;1.83;;;;;;;-145.18;100.00;60484.78;5051987;28;20051;-72
2023/04/13 06:58:50;;;;;;;2.77;1.10;;;;;;;-145.18;100.00;60484.78;5038623;28;20021;-72
2023/04/13 07:01:16;;;;;;;10.40;2.63;;;;;;;-145.18;100.00;60484.78;5055995;28;20036;-72
2023/04/13 07:03:42;;;;;;;5.40;1.90;;;;;;;-145.18;100.00;60484.78;5035917;28;20053;-73
2023/04/13 07:06:08;;;;;;;6.20;2.00;;;;;;;-145.18;100.00;60484.78;5054726;28;20090;-72
2023/04/13 07:08:34;;;;;;;6.20;1.90;;;;;;;-145.18;100.00;60484.78;5054901;28;20029;-72
2023/04/13 07:11:01;;;;;;;4.43;1.90;;;;;;;-145.18;100.00;60484.78;5055805;28;20537;-73
2023/04/13 07:13:26;;;;;;;4.37;1.73;;;;;;;-145.18;100.00;60484.78;5055704;28;20035;-73
2023/04/13 07:15:52;;;;;;;4.47;1.83;;;;;;;-145.18;100.00;60484.78;5055437;28;20025;-73
2023/04/13 07:18:17;;;;;;;5.40;1.90;;;;;;;-145.18;100.00;60484.78;5055611;28;20021;-73
2023/04/13 07:20:43;;;;;;;5.00;1.87;;;;;;;-145.18;100.00;60484.78;5036628;28;20064;-72
2023/04/13 07:23:08;;;;;;;5.07;2.03;;;;;;;-145.18;100.00;60484.78;5055041;28;20377;-71
2023/04/13 07:25:34;;;;;;;5.00;1.70;;;;;;;-145.18;100.00;60484.78;5054409;28;20069;-71
2023/04/13 07:28:00;;;;;;;5.00;1.90;;;;;;;-145.18;100.00;60484.78;5056059;28;20059;-71
2023/04/13 07:30:29;;;;;;;3.60;1.73;;;;;;;-145.18;100.00;60484.78;5053579;28;20131;-70
2023/04/13 07:32:54;;;;;;;5.47;2.30;;;;;;;-145.18;100.00;60484.78;5036410;28;20035;-70
2023/04/13 07:35:20;;;;;;;3.03;1.42;;;;;;;-145.18;100.00;60484.78;5045360;28;20944;-71
2023/04/13 07:37:48;;;;;;;5.25;2.05;;;;;;;-145.18;100.00;60484.78;5056065;28;20024;-71
2023/04/13 07:40:14;;;;;;;5.17;1.67;;;;;;;-145.18;100.00;60484.78;5054374;28;20499;-71
2023/04/13 07:42:40;;;;;;;6.47;1.70;;;;;;;-145.18;100.00;60484.78;5054814;28;20385;-71
2023/04/13 07:45:06;;;;;;;4.90;2.00;;;;;;;-145.18;100.00;60484.78;5053496;28;20040;-71
2023/04/13 07:47:32;;;;;;;5.73;2.30;;;;;;;-145.18;100.00;60484.78;5055145;28;20029;-71
2023/04/13 07:49:58;;;;;;;6.27;2.47;;;;;;;-145.18;100.00;60484.78;5054779;28;20075;-71
2023/04/13 07:52:23;;;;;;;7.33;2.30;;;;;;;-145.18;100.00;60484.78;5055546;28;20119;-70
2023/04/13 07:54:49;;;;;;;5.00;2.30;;;;;;;-145.18;100.00;60484.78;5055411;28;20073;-71
2023/04/13 07:57:18;;;;;;;4.90;2.10;;;;;;;-145.18;100.00;60484.78;5055455;28;20017;-71
2023/04/13 07:59:43;;;;;;;4.80;1.87;;;;;;;-145.18;100.00;60484.78;5055447;28;20077;-71
2023/04/13 08:02:09;;;;;;;7.33;3.00;;;;;;;-145.18;100.00;60484.78;5041195;28;20041;-71
2023/04/13 08:04:34;;;;;;;7.77;2.50;;;;;;;-145.18;100.00;60484.78;5055326;28;20388;-71
2023/04/13 08:07:03;;;;;;;5.23;1.57;;;;;;;-145.18;100.00;60484.78;5036836;28;20036;-71
2023/04/13 08:09:35;;;;;;;6.53;1.80;;;;;;;-145.18;100.00;60484.78;5053773;28;20468;-71
2023/04/13 08:12:01;;;;;;;4.38;1.63;;;;;;;-145.18;100.00;60484.78;5049928;28;20127;-71
2023/04/13 08:14:27;;;;;;;4.33;2.03;;;;;;;-145.18;100.00;60484.78;5054837;28;20032;-71
2023/04/13 08:16:52;;;;;;;5.67;2.10;;;;;;;-145.18;100.00;60484.78;5053088;28;20028;-71
2023/04/13 08:19:18;;;;;;;3.20;1.70;;;;;;;-145.18;100.00;60484.78;5052590;28;20031;-71
2023/04/13 08:21:43;;;;;;;5.80;1.67;;;;;;;-145.18;100.00;60484.78;5055352;28;20052;-71
2023/04/13 08:24:09;;;;;;;4.43;1.90;;;;;;;-145.18;100.00;60484.78;5055062;28;20021;-71
2023/04/13 08:26:34;;;;;;;3.80;1.90;;;;;;;-145.18;100.00;60484.78;5053468;28;20420;-70
2023/04/13 08:29:00;;;;;;;7.10;2.30;;;;;;;-145.18;100.00;60484.78;5036878;28;20032;-71
2023/04/13 08:31:25;;;;;;;6.07;2.60;;;;;;;-145.18;100.00;60484.78;5055075;28;20384;-71
2023/04/13 08:33:51;;;;;;;6.30;1.80;;;;;;;-145.18;100.00;60484.78;5054917;28;20516;-70
2023/04/13 08:36:17;;;;;;;3.90;1.47;;;;;;;-145.18;100.00;60484.78;5054797;28;20056;-71
2023/04/13 08:38:42;;;;;;;6.53;1.70;;;;;;;-145.18;100.00;60484.78;5054726;28;20041;-71
2023/04/13 08:41:09;;;;;;;3.60;1.20;;;;;;;-145.18;100.00;60484.78;5054612;28;20080;-71
2023/04/13 08:43:34;;;;;;;7.30;2.10;;;;;;;-145.18;100.00;60484.78;5039610;28;20108;-71
2023/04/13 08:46:05;;;;;;;6.15;1.80;;;;;;;-145.18;100.00;60484.78;5046322;28;20051;-71
2023/04/13 08:48:32;;;;;;;3.45;1.60;;;;;;;-145.18;100.00;60484.78;5038735;28;20025;-71
2023/04/13 08:50:59;;;;;;;4.40;1.98;;;;;;;-145.18;100.00;60484.78;5034555;28;20033;-71
2023/04/13 08:53:24;;;;;;;7.55;1.83;;;;;;;-145.18;100.00;60484.78;5016812;28;20507;-70
2023/04/13 08:55:52;;;;;;;5.30;1.80;;;;;;;-145.18;100.00;60484.78;5043527;28;20029;-71
2023/04/13 08:58:19;;;;;;;5.88;1.98;;;;;;;-145.18;100.00;60484.78;5025550;28;20101;-71
2023/04/13 09:00:48;;;;;;;6.30;1.80;;;;;;;-145.18;100.00;60484.78;5034725;28;20039;-72
2023/04/13 09:03:22;;;;;;;5.95;1.90;;;;;;;-145.18;100.00;60484.78;5045697;28;20045;-71
2023/04/13 09:05:55;;;;;;;3.22;1.63;;;;;;;-145.18;100.00;60484.78;5033784;28;20018;-71
2023/04/13 09:08:21;;;;;;;6.63;1.90;;;;;;;-145.18;100.00;60484.78;5034204;28;20029;-71
2023/04/13 09:10:47;;;;;;;4.97;1.90;;;;;;;-145.18;100.00;60484.78;5034337;28;20025;-72
2023/04/13 09:13:13;;;;;;;5.70;2.60;;;;;;;-145.18;100.00;60484.78;5034095;28;20380;-72
2023/04/13 09:15:39;;;;;;;6.03;2.00;;;;;;;-145.18;100.00;60484.78;5035196;28;20021;-72
2023/04/13 09:18:09;;;;;;;4.00;1.73;;;;;;;-145.18;100.00;60484.78;5053944;28;20027;-72
2023/04/13 09:20:35;;;;;;;4.10;1.65;;;;;;;-145.18;100.00;60484.78;5053555;28;20477;-71
2023/04/13 09:23:12;;;;;;;5.38;1.73;;;;;;;-145.18;100.00;60484.78;5053215;28;20021;-71
2023/04/13 09:25:38;;;;;;;5.70;1.80;;;;;;;-145.18;100.00;60484.78;5052880;28;20028;-71
2023/04/13 09:28:04;;;;;;;5.60;2.60;;;;;;;-145.18;100.00;60484.78;5051927;28;20025;-71
2023/04/13 09:30:30;;;;;;;4.60;1.80;;;;;;;-145.18;100.00;60484.78;5052897;28;20029;-71
2023/04/13 09:33:22;;;;;;;3.77;1.93;;;;;;;-145.18;100.00;60484.78;5053690;28;20032;-71
2023/04/13 09:35:47;;;;;;;4.72;2.13;;;;;;;-145.18;100.00;60484.78;5046599;28;20041;-71
2023/04/13 09:38:15;;;;;;;8.00;2.10;;;;;;;-145.18;100.00;60484.78;5053505;28;20155;-72
2023/04/13 09:40:48;;;;;;;7.07;2.13;;;;;;;-145.18;100.00;60484.78;5050402;28;20425;-71
2023/04/13 09:43:13;;;;;;;5.37;1.80;;;;;;;-145.18;100.00;60484.78;5050054;28;20017;-71
2023/04/13 09:45:43;;;;;;;5.50;1.93;;;;;;;-145.18;100.00;60484.78;5050581;28;20047;-71
2023/04/13 09:48:20;;;;;;;5.13;1.90;;;;;;;-145.18;100.00;60484.78;5052770;28;20021;-71
2023/04/13 09:50:56;;;;;;;6.57;2.20;;;;;;;-145.18;100.00;60484.78;5053200;28;20028;-71
2023/04/13 09:53:21;;;;;;;4.33;1.63;;;;;;;-145.18;100.00;60484.78;5051307;28;20543;-71
2023/04/13 09:55:56;;;;;;;4.73;1.97;;;;;;;-145.18;100.00;60484.78;5020798;28;20045;-72
2023/04/13 09:58:22;;;;;;;3.57;1.80;;;;;;;-145.18;100.00;60484.78;5033537;28;20045;-72
2023/04/13 10:00:47;;;;;;;6.07;1.93;;;;;;;-145.18;100.00;60484.78;5033250;28;20504;-71
2023/04/13 10:03:14;;;;;;;7.00;2.13;;;;;;;-145.18;100.00;60484.78;5044243;28;20049;-71
2023/04/13 10:05:44;;;;;;;5.47;2.03;;;;;;;-145.18;100.00;60484.78;5053492;28;20377;-71
2023/04/13 10:08:09;;;;;;;3.53;1.53;;;;;;;-145.18;100.00;60484.78;5053250;28;20422;-71
2023/04/13 10:10:36;;;;;;;3.45;1.50;;;;;;;-145.18;100.00;60484.78;5052959;28;20028;-72
2023/04/13 10:13:19;;;;;;;3.97;1.60;;;;;;;-145.18;100.00;60484.78;5053066;28;20025;-72
2023/04/13 10:16:16;;;;;;;4.13;1.40;;;;;;;-145.18;100.00;60484.78;5035255;28;20047;-71
2023/04/13 10:19:05;;;;;;;3.03;1.48;;;;;;;-145.18;100.00;60484.78;5050684;28;20521;-71
2023/04/13 10:21:38;;;;;;;2.07;1.07;;;;;;;-145.18;100.00;60484.78;5052958;28;20032;-71
2023/04/13 10:24:05;;;;;;;3.13;1.43;;;;;;;-145.18;100.00;60484.78;5053213;28;20029;-71
2023/04/13 10:26:35;;;;;;;3.47;1.40;;;;;;;-145.18;100.00;60484.78;5052966;28;20481;-71
2023/04/13 10:29:02;;;;;;;1.80;1.10;;;;;;;-145.18;100.00;60484.78;5052622;28;20025;-71
2023/04/13 10:31:55;;;;;;;5.50;1.30;;;;;;;-145.18;100.00;60484.78;5053139;28;20350;-71
2023/04/13 10:34:29;;;;;;;2.93;1.50;;;;;;;-145.18;100.00;60484.78;5049850;28;20040;-71
2023/04/13 10:36:57;;;;;;;4.07;1.30;;;;;;;-145.18;100.00;60484.78;5052949;28;20113;-70
2023/04/13 10:39:27;;;;;;;2.40;1.30;;;;;;;-145.18;100.00;60484.78;5052751;28;20021;-71
2023/04/13 10:42:00;;;;;;;4.37;1.23;;;;;;;-145.18;100.00;60484.78;5042340;28;20036;-71
2023/04/13 10:44:26;;;;;;;4.30;1.30;;;;;;;-145.18;100.00;60484.78;5052519;28;20369;-70
2023/04/13 10:46:52;;;;;;;2.70;1.37;;;;;;;-145.18;100.00;60484.78;5052638;28;20029;-71
2023/04/13 10:49:17;;;;;;;2.73;1.43;;;;;;;-145.18;100.00;60484.78;5048896;28;20166;-71
2023/04/13 10:51:45;;;;;;;2.87;1.40;;;;;;;-145.18;100.00;60484.78;5047246;28;20024;-71
2023/04/13 10:54:12;;;;;;;3.93;1.50;;;;;;;-145.18;100.00;60484.78;5051872;28;20021;-71
2023/04/13 10:56:39;;;;;;;3.87;1.90;;;;;;;-145.18;100.00;60484.78;5050710;28;20406;-71
2023/04/13 10:59:04;;;;;;;2.93;1.70;;;;;;;-145.18;100.00;60484.78;5051774;28;20025;-71
2023/04/13 11:01:30;;;;;;;3.73;1.53;;;;;;;-145.18;100.00;60484.78;5051589;28;20098;-71
2023/04/13 11:04:01;;;;;;;4.33;2.20;;;;;;;-145.18;100.00;60484.78;5052261;28;20049;-71
2023/04/13 11:06:27;;;;;;;5.37;2.40;;;;;;;-145.18;100.00;60484.78;5022893;28;20022;-71
2023/04/13 11:09:03;;;;;;;3.40;1.93;;;;;;;-145.18;100.00;60484.78;5019670;28;20032;-71